createdAt,value
2018-08-20T00:00:19.044Z,993.77
2018-08-20T00:01:19.050Z,993.77
2018-08-20T00:02:19.058Z,993.78
2018-08-20T00:03:19.051Z,993.73
2018-08-20T00:04:19.052Z,993.74
2018-08-20T00:05:19.055Z,993.76
2018-08-20T00:06:19.057Z,993.78
2018-08-20T00:07:19.106Z,993.79
2018-08-20T00:08:19.070Z,993.79
2018-08-20T00:09:19.063Z,993.82
2018-08-20T00:10:19.068Z,993.77
2018-08-20T00:11:19.065Z,993.8
2018-08-20T00:12:19.067Z,993.8
2018-08-20T00:13:19.072Z,993.81
2018-08-20T00:14:19.076Z,993.82
2018-08-20T00:15:19.081Z,993.8
2018-08-20T00:16:19.084Z,993.79
2018-08-20T00:17:19.079Z,993.8
2018-08-20T00:18:19.080Z,993.78
2018-08-20T00:19:19.082Z,993.82
2018-08-20T00:20:19.083Z,993.79
2018-08-20T00:21:19.085Z,993.78
2018-08-20T00:22:19.088Z,993.77
2018-08-20T00:23:19.090Z,993.77
2018-08-20T00:24:19.092Z,993.78
2018-08-20T00:25:19.095Z,993.8
2018-08-20T00:26:19.102Z,993.79
2018-08-20T00:27:19.099Z,993.79
2018-08-20T00:28:19.103Z,993.77
2018-08-20T00:29:19.102Z,993.81
2018-08-20T00:30:19.109Z,993.84
2018-08-20T00:31:19.111Z,993.8
2018-08-20T00:32:19.112Z,993.84
2018-08-20T00:33:19.110Z,993.87
2018-08-20T00:34:19.110Z,993.83
2018-08-20T00:35:19.113Z,993.86
2018-08-20T00:36:19.128Z,993.81
2018-08-20T00:37:19.118Z,993.83
2018-08-20T00:38:19.117Z,993.85
2018-08-20T00:39:19.120Z,993.84
2018-08-20T00:40:19.124Z,993.82
2018-08-20T00:41:19.128Z,993.85
2018-08-20T00:42:19.125Z,993.84
2018-08-20T00:43:19.130Z,993.84
2018-08-20T00:44:19.130Z,993.86
2018-08-20T00:45:19.132Z,993.83
2018-08-20T00:46:19.136Z,993.87
2018-08-20T00:47:19.135Z,993.89
2018-08-20T00:48:19.140Z,993.89
2018-08-20T00:49:19.142Z,993.82
2018-08-20T00:50:19.144Z,993.84
2018-08-20T00:51:19.145Z,993.85
2018-08-20T00:52:19.157Z,993.82
2018-08-20T00:53:19.146Z,993.84
2018-08-20T00:54:19.148Z,993.79
2018-08-20T00:55:19.151Z,993.82
2018-08-20T00:56:19.154Z,993.83
2018-08-20T00:57:19.154Z,993.79
2018-08-20T00:58:19.154Z,993.79
2018-08-20T00:59:19.162Z,993.79
2018-08-20T01:00:19.159Z,993.75
2018-08-20T01:01:19.159Z,993.76
2018-08-20T01:02:19.160Z,993.79
2018-08-20T01:03:19.178Z,993.79
2018-08-20T01:04:19.165Z,993.77
2018-08-20T01:05:19.165Z,993.77
2018-08-20T01:06:19.172Z,993.82
2018-08-20T01:07:19.168Z,993.85
2018-08-20T01:08:19.170Z,993.83
2018-08-20T01:09:19.172Z,993.8
2018-08-20T01:10:19.175Z,993.82
2018-08-20T01:11:19.176Z,993.8
2018-08-20T01:12:19.179Z,993.82
2018-08-20T01:13:19.180Z,993.85
2018-08-20T01:14:19.181Z,993.83
2018-08-20T01:15:19.181Z,993.79
2018-08-20T01:16:19.183Z,993.8
2018-08-20T01:17:19.186Z,993.79
2018-08-20T01:18:19.187Z,993.78
2018-08-20T01:19:19.194Z,993.73
2018-08-20T01:20:19.190Z,993.71
2018-08-20T01:21:19.189Z,993.73
2018-08-20T01:22:19.195Z,993.72
2018-08-20T01:23:19.196Z,993.75
2018-08-20T01:24:19.196Z,993.77
2018-08-20T01:25:19.199Z,993.74
2018-08-20T01:26:19.201Z,993.74
2018-08-20T01:27:19.200Z,993.72
2018-08-20T01:28:19.202Z,993.73
2018-08-20T01:29:19.208Z,993.74
2018-08-20T01:30:19.209Z,993.76
2018-08-20T01:31:19.220Z,993.77
2018-08-20T01:32:19.210Z,993.73
2018-08-20T01:33:19.212Z,993.79
2018-08-20T01:34:19.213Z,993.78
2018-08-20T01:35:19.214Z,993.78
2018-08-20T01:36:19.215Z,993.81
2018-08-20T01:37:19.216Z,993.84
2018-08-20T01:38:19.218Z,993.82
2018-08-20T01:39:19.237Z,993.78
2018-08-20T01:40:19.230Z,993.74
2018-08-20T01:41:19.229Z,993.78
2018-08-20T01:42:19.225Z,993.78
2018-08-20T01:43:19.223Z,993.78
2018-08-20T01:44:19.244Z,993.77
2018-08-20T01:45:19.237Z,993.8
2018-08-20T01:46:19.243Z,993.82
2018-08-20T01:47:19.238Z,993.8
2018-08-20T01:48:19.238Z,993.86
2018-08-20T01:49:19.242Z,993.83
2018-08-20T01:50:19.239Z,993.84
2018-08-20T01:51:19.240Z,993.84
2018-08-20T01:52:19.240Z,993.79
2018-08-20T01:53:19.240Z,993.81
2018-08-20T01:54:19.240Z,993.8
2018-08-20T01:55:19.241Z,993.79
2018-08-20T01:56:19.247Z,993.82
2018-08-20T01:57:19.258Z,993.78
2018-08-20T01:58:19.246Z,993.8
2018-08-20T01:59:19.248Z,993.78
2018-08-20T02:00:19.254Z,993.7
2018-08-20T02:01:19.251Z,993.74
2018-08-20T02:02:19.253Z,993.73
2018-08-20T02:03:19.274Z,993.71
2018-08-20T02:04:19.273Z,993.74
2018-08-20T02:05:19.254Z,993.75
2018-08-20T02:06:19.256Z,993.77
2018-08-20T02:07:19.256Z,993.74
2018-08-20T02:08:19.269Z,993.75
2018-08-20T02:09:19.260Z,993.78
2018-08-20T02:10:19.264Z,993.77
2018-08-20T02:11:19.263Z,993.78
2018-08-20T02:12:19.267Z,993.75
2018-08-20T02:13:19.266Z,993.76
2018-08-20T02:14:19.267Z,993.75
2018-08-20T02:15:19.273Z,993.8
2018-08-20T02:16:19.267Z,993.77
2018-08-20T02:17:19.283Z,993.75
2018-08-20T02:18:19.272Z,993.76
2018-08-20T02:19:19.274Z,993.76
2018-08-20T02:20:19.274Z,993.78
2018-08-20T02:21:19.278Z,993.8
2018-08-20T02:22:19.278Z,993.77
2018-08-20T02:23:19.275Z,993.81
2018-08-20T02:24:19.280Z,993.8
2018-08-20T02:25:19.282Z,993.76
2018-08-20T02:26:19.282Z,993.83
2018-08-20T02:27:19.280Z,993.79
2018-08-20T02:28:19.286Z,993.82
2018-08-20T02:29:19.288Z,993.8
2018-08-20T02:30:19.294Z,993.84
2018-08-20T02:31:19.292Z,993.83
2018-08-20T02:32:19.290Z,993.83
2018-08-20T02:33:19.289Z,993.84
2018-08-20T02:34:19.292Z,993.86
2018-08-20T02:35:19.298Z,993.82
2018-08-20T02:36:19.295Z,993.81
2018-08-20T02:37:19.296Z,993.81
2018-08-20T02:38:19.301Z,993.8
2018-08-20T02:39:19.297Z,993.8
2018-08-20T02:40:19.300Z,993.81
2018-08-20T02:41:19.297Z,993.83
2018-08-20T02:42:19.303Z,993.79
2018-08-20T02:43:19.314Z,993.84
2018-08-20T02:44:19.310Z,993.87
2018-08-20T02:45:19.304Z,993.86
2018-08-20T02:46:19.313Z,993.82
2018-08-20T02:47:19.307Z,993.84
2018-08-20T02:48:19.312Z,993.77
2018-08-20T02:49:19.316Z,993.78
2018-08-20T02:50:19.318Z,993.77
2018-08-20T02:51:19.319Z,993.76
2018-08-20T02:52:19.318Z,993.79
2018-08-20T02:53:19.320Z,993.76
2018-08-20T02:54:19.329Z,993.75
2018-08-20T02:55:19.322Z,993.74
2018-08-20T02:56:19.328Z,993.76
2018-08-20T02:57:19.322Z,993.72
2018-08-20T02:58:19.323Z,993.74
2018-08-20T02:59:19.321Z,993.74
2018-08-20T03:00:19.325Z,993.72
2018-08-20T03:01:19.324Z,993.73
2018-08-20T03:02:19.334Z,993.74
2018-08-20T03:03:19.324Z,993.72
2018-08-20T03:04:19.327Z,993.71
2018-08-20T03:05:19.325Z,993.71
2018-08-20T03:06:19.327Z,993.69
2018-08-20T03:07:19.331Z,993.75
2018-08-20T03:08:19.334Z,993.69
2018-08-20T03:09:19.375Z,993.7
2018-08-20T03:10:19.336Z,993.74
2018-08-20T03:11:19.335Z,993.72
2018-08-20T03:12:19.334Z,993.74
2018-08-20T03:13:19.337Z,993.75
2018-08-20T03:14:19.711Z,993.71
2018-08-20T03:15:19.337Z,993.71
2018-08-20T03:16:19.393Z,993.74
2018-08-20T03:17:19.374Z,993.76
2018-08-20T03:18:19.344Z,993.75
2018-08-20T03:19:19.342Z,993.7
2018-08-20T03:20:19.349Z,993.75
2018-08-20T03:21:19.342Z,993.74
2018-08-20T03:22:19.344Z,993.74
2018-08-20T03:23:19.346Z,993.76
2018-08-20T03:24:19.352Z,993.75
2018-08-20T03:25:19.402Z,993.76
2018-08-20T03:26:19.352Z,993.76
2018-08-20T03:27:19.353Z,993.72
2018-08-20T03:28:19.352Z,993.77
2018-08-20T03:29:19.352Z,993.75
2018-08-20T03:30:19.367Z,993.76
2018-08-20T03:31:19.355Z,993.76
2018-08-20T03:32:19.357Z,993.75
2018-08-20T03:33:19.365Z,993.75
2018-08-20T03:34:19.361Z,993.73
2018-08-20T03:35:19.363Z,993.71
2018-08-20T03:36:19.361Z,993.74
2018-08-20T03:37:19.367Z,993.71
2018-08-20T03:38:19.366Z,993.72
2018-08-20T03:39:19.365Z,993.76
2018-08-20T03:40:19.366Z,993.76
2018-08-20T03:41:19.366Z,993.78
2018-08-20T03:42:19.368Z,993.79
2018-08-20T03:43:19.396Z,993.81
2018-08-20T03:44:19.372Z,993.78
2018-08-20T03:45:19.374Z,993.81
2018-08-20T03:46:19.371Z,993.82
2018-08-20T03:47:19.373Z,993.8
2018-08-20T03:48:19.392Z,993.85
2018-08-20T03:49:19.379Z,993.84
2018-08-20T03:50:19.374Z,993.85
2018-08-20T03:51:19.377Z,993.87
2018-08-20T03:52:19.378Z,993.88
2018-08-20T03:53:19.393Z,993.88
2018-08-20T03:54:19.380Z,993.9
2018-08-20T03:55:19.382Z,993.9
2018-08-20T03:56:19.382Z,993.9
2018-08-20T03:57:19.384Z,993.89
2018-08-20T03:58:19.391Z,993.95
2018-08-20T03:59:19.396Z,993.91
2018-08-20T04:00:19.387Z,993.94
2018-08-20T04:01:19.397Z,993.88
2018-08-20T04:02:20.997Z,993.91
2018-08-20T04:03:19.388Z,993.87
2018-08-20T04:04:19.389Z,993.91
2018-08-20T04:05:19.394Z,993.87
2018-08-20T04:06:19.395Z,993.9
2018-08-20T04:07:19.398Z,993.85
2018-08-20T04:08:19.393Z,993.85
2018-08-20T04:09:19.397Z,993.84
2018-08-20T04:10:19.395Z,993.88
2018-08-20T04:11:19.395Z,993.84
2018-08-20T04:12:19.402Z,993.79
2018-08-20T04:13:19.399Z,993.8
2018-08-20T04:14:19.399Z,993.84
2018-08-20T04:15:19.399Z,993.78
2018-08-20T04:16:19.401Z,993.83
2018-08-20T04:17:19.399Z,993.83
2018-08-20T04:18:19.406Z,993.82
2018-08-20T04:19:19.404Z,993.83
2018-08-20T04:20:19.405Z,993.84
2018-08-20T04:21:19.404Z,993.84
2018-08-20T04:22:19.410Z,993.83
2018-08-20T04:23:19.411Z,993.85
2018-08-20T04:24:19.424Z,993.84
2018-08-20T04:25:19.416Z,993.8
2018-08-20T04:26:19.418Z,993.83
2018-08-20T04:27:19.428Z,993.81
2018-08-20T04:28:19.441Z,993.82
2018-08-20T04:29:19.417Z,993.83
2018-08-20T04:30:19.431Z,993.81
2018-08-20T04:31:19.416Z,993.78
2018-08-20T04:32:19.415Z,993.83
2018-08-20T04:33:19.420Z,993.83
2018-08-20T04:34:19.422Z,993.81
2018-08-20T04:35:19.420Z,993.83
2018-08-20T04:36:19.487Z,993.76
2018-08-20T04:37:19.419Z,993.74
2018-08-20T04:38:19.426Z,993.8
2018-08-20T04:39:19.422Z,993.72
2018-08-20T04:40:19.427Z,993.77
2018-08-20T04:41:19.428Z,993.76
2018-08-20T04:42:19.494Z,993.77
2018-08-20T04:43:19.424Z,993.79
2018-08-20T04:44:19.431Z,993.8
2018-08-20T04:45:19.430Z,993.76
2018-08-20T04:46:19.450Z,993.78
2018-08-20T04:47:19.436Z,993.78
2018-08-20T04:48:19.449Z,993.8
2018-08-20T04:49:19.444Z,993.81
2018-08-20T04:50:19.571Z,993.81
2018-08-20T04:51:19.550Z,993.79
2018-08-20T04:52:19.433Z,993.79
2018-08-20T04:53:19.443Z,993.85
2018-08-20T04:54:19.436Z,993.84
2018-08-20T04:55:19.437Z,993.87
2018-08-20T04:56:19.453Z,993.82
2018-08-20T04:57:19.440Z,993.85
2018-08-20T04:58:19.440Z,993.81
2018-08-20T04:59:19.439Z,993.79
2018-08-20T05:00:19.444Z,993.79
2018-08-20T05:01:19.451Z,993.79
2018-08-20T05:02:19.447Z,993.8
2018-08-20T05:03:19.699Z,993.8
2018-08-20T05:04:19.469Z,993.84
2018-08-20T05:05:19.452Z,993.77
2018-08-20T05:06:19.455Z,993.71
2018-08-20T05:07:19.455Z,993.79
2018-08-20T05:08:19.459Z,993.77
2018-08-20T05:09:19.464Z,993.78
2018-08-20T05:10:19.464Z,993.77
2018-08-20T05:11:19.466Z,993.81
2018-08-20T05:12:19.464Z,993.86
2018-08-20T05:13:19.468Z,993.85
2018-08-20T05:14:19.478Z,993.8
2018-08-20T05:15:19.490Z,993.82
2018-08-20T05:16:19.482Z,993.82
2018-08-20T05:17:19.478Z,993.8
2018-08-20T05:18:19.533Z,993.82
2018-08-20T05:19:19.485Z,993.81
2018-08-20T05:20:19.498Z,993.8
2018-08-20T05:21:19.493Z,993.78
2018-08-20T05:22:19.495Z,993.81
2018-08-20T05:23:19.499Z,993.82
2018-08-20T05:24:19.503Z,993.8
2018-08-20T05:25:19.506Z,993.8
2018-08-20T05:26:19.509Z,993.82
2018-08-20T05:27:19.514Z,993.79
2018-08-20T05:28:19.517Z,993.82
2018-08-20T05:29:19.552Z,993.79
2018-08-20T05:30:19.521Z,993.88
2018-08-20T05:31:19.524Z,993.9
2018-08-20T05:32:19.527Z,993.95
2018-08-20T05:33:19.541Z,993.91
2018-08-20T05:34:19.540Z,993.96
2018-08-20T05:35:19.538Z,993.97
2018-08-20T05:36:19.543Z,994.02
2018-08-20T05:37:19.540Z,994.01
2018-08-20T05:38:19.564Z,994.01
2018-08-20T05:39:19.550Z,994.03
2018-08-20T05:40:19.550Z,994.03
2018-08-20T05:41:19.552Z,994.06
2018-08-20T05:42:19.554Z,994.01
2018-08-20T05:43:19.561Z,994.06
2018-08-20T05:44:19.559Z,994.07
2018-08-20T05:45:19.561Z,994.07
2018-08-20T05:46:19.568Z,994.02
2018-08-20T05:47:19.581Z,994.08
2018-08-20T05:48:19.573Z,994.1
2018-08-20T05:49:19.577Z,994.04
2018-08-20T05:50:19.577Z,994.11
2018-08-20T05:51:19.580Z,994.08
2018-08-20T05:52:19.582Z,994.09
2018-08-20T05:53:19.595Z,994.15
2018-08-20T05:54:19.591Z,994.15
2018-08-20T05:55:19.595Z,994.17
2018-08-20T05:56:19.597Z,994.2
2018-08-20T05:57:19.609Z,994.21
2018-08-20T05:58:19.604Z,994.19
2018-08-20T05:59:19.662Z,994.2
2018-08-20T06:00:19.611Z,994.2
2018-08-20T06:01:19.611Z,994.21
2018-08-20T06:02:19.614Z,994.21
2018-08-20T06:03:19.622Z,994.22
2018-08-20T06:04:19.623Z,994.17
2018-08-20T06:05:19.687Z,994.22
2018-08-20T06:06:19.640Z,994.2
2018-08-20T06:07:19.641Z,994.11
2018-08-20T06:08:19.643Z,994.13
2018-08-20T06:09:19.656Z,994.08
2018-08-20T06:10:19.661Z,994.05
2018-08-20T06:11:19.662Z,994.15
2018-08-20T06:12:19.663Z,994.12
2018-08-20T06:13:19.665Z,994.16
2018-08-20T06:14:19.670Z,994.2
2018-08-20T06:15:19.748Z,994.19
2018-08-20T06:16:19.679Z,994.2
2018-08-20T06:17:19.685Z,994.18
2018-08-20T06:18:19.689Z,994.16
2018-08-20T06:19:19.699Z,994.15
2018-08-20T06:20:19.697Z,994.16
2018-08-20T06:21:19.703Z,994.15
2018-08-20T06:22:19.719Z,994.2
2018-08-20T06:23:19.714Z,994.21
2018-08-20T06:24:19.717Z,994.21
2018-08-20T06:25:19.723Z,994.25
2018-08-20T06:26:19.729Z,994.23
2018-08-20T06:27:19.733Z,994.28
2018-08-20T06:28:19.736Z,994.29
2018-08-20T06:29:19.750Z,994.25
2018-08-20T06:30:19.758Z,994.26
2018-08-20T06:31:19.764Z,994.25
2018-08-20T06:32:19.758Z,994.29
2018-08-20T06:33:19.764Z,994.25
2018-08-20T06:34:19.777Z,994.26
2018-08-20T06:35:19.777Z,994.26
2018-08-20T06:36:19.788Z,994.24
2018-08-20T06:37:19.788Z,994.22
2018-08-20T06:38:19.792Z,994.26
2018-08-20T06:39:19.802Z,994.21
2018-08-20T06:40:19.807Z,994.25
2018-08-20T06:41:19.822Z,994.25
2018-08-20T06:42:19.826Z,994.26
2018-08-20T06:43:19.836Z,994.28
2018-08-20T06:44:19.836Z,994.24
2018-08-20T06:45:19.839Z,994.26
2018-08-20T06:46:19.848Z,994.27
2018-08-20T06:47:19.854Z,994.3
2018-08-20T06:48:19.859Z,994.31
2018-08-20T06:49:19.867Z,994.3
2018-08-20T06:50:19.880Z,994.24
2018-08-20T06:51:19.880Z,994.24
2018-08-20T06:52:19.887Z,994.23
2018-08-20T06:53:19.895Z,994.21
2018-08-20T06:54:19.906Z,994.23
2018-08-20T06:55:19.918Z,994.27
2018-08-20T06:56:19.922Z,994.25
2018-08-20T06:57:19.921Z,994.22
2018-08-20T06:58:19.932Z,994.29
2018-08-20T06:59:19.945Z,994.28
2018-08-20T07:00:19.945Z,994.25
2018-08-20T07:01:19.952Z,994.23
2018-08-20T07:02:19.961Z,994.21
2018-08-20T07:03:19.966Z,994.19
2018-08-20T07:04:19.979Z,994.19
2018-08-20T07:05:19.982Z,994.19
2018-08-20T07:06:20.020Z,994.18
2018-08-20T07:07:19.996Z,994.23
2018-08-20T07:08:20.012Z,994.19
2018-08-20T07:09:20.017Z,994.15
2018-08-20T07:10:20.022Z,994.16
2018-08-20T07:11:20.029Z,994.18
2018-08-20T07:12:20.039Z,994.14
2018-08-20T07:13:20.043Z,994.13
2018-08-20T07:14:20.054Z,994.16
2018-08-20T07:15:20.059Z,994.15
2018-08-20T07:16:20.066Z,994.13
2018-08-20T07:17:20.077Z,994.18
2018-08-20T07:18:20.083Z,994.19
2018-08-20T07:19:20.091Z,994.19
2018-08-20T07:20:20.102Z,994.16
2018-08-20T07:21:20.111Z,994.2
2018-08-20T07:22:20.113Z,994.2
2018-08-20T07:23:20.141Z,994.22
2018-08-20T07:24:20.133Z,994.2
2018-08-20T07:25:20.137Z,994.22
2018-08-20T07:26:20.147Z,994.19
2018-08-20T07:27:20.155Z,994.2
2018-08-20T07:28:20.166Z,994.16
2018-08-20T07:29:20.172Z,994.19
2018-08-20T07:30:20.180Z,994.19
2018-08-20T07:31:20.209Z,994.24
2018-08-20T07:32:20.202Z,994.24
2018-08-20T07:33:20.206Z,994.22
2018-08-20T07:34:20.216Z,994.21
2018-08-20T07:35:20.223Z,994.19
2018-08-20T07:36:20.233Z,994.23
2018-08-20T07:37:20.249Z,994.24
2018-08-20T07:38:20.247Z,994.26
2018-08-20T07:39:20.252Z,994.29
2018-08-20T07:40:20.259Z,994.28
2018-08-20T07:41:20.269Z,994.3
2018-08-20T07:42:20.313Z,994.31
2018-08-20T07:43:20.278Z,994.34
2018-08-20T07:44:20.287Z,994.36
2018-08-20T07:45:20.295Z,994.39
2018-08-20T07:46:20.306Z,994.39
2018-08-20T07:47:20.307Z,994.38
2018-08-20T07:48:20.310Z,994.37
2018-08-20T07:49:20.318Z,994.34
2018-08-20T07:50:20.325Z,994.34
2018-08-20T07:51:20.335Z,994.32
2018-08-20T07:52:20.342Z,994.31
2018-08-20T07:53:20.344Z,994.33
2018-08-20T07:54:20.358Z,994.32
2018-08-20T07:55:20.371Z,994.32
2018-08-20T07:56:20.372Z,994.31
2018-08-20T07:57:20.376Z,994.36
2018-08-20T07:58:20.406Z,994.34
2018-08-20T07:59:20.397Z,994.36
2018-08-20T08:00:20.400Z,994.31
2018-08-20T08:01:20.410Z,994.3
2018-08-20T08:02:20.429Z,994.33
2018-08-20T08:03:20.435Z,994.37
2018-08-20T08:04:20.434Z,994.36
2018-08-20T08:05:20.442Z,994.34
2018-08-20T08:06:20.453Z,994.38
2018-08-20T08:07:20.467Z,994.37
2018-08-20T08:08:20.468Z,994.37
2018-08-20T08:09:20.494Z,994.34
2018-08-20T08:10:20.488Z,994.34
2018-08-20T08:11:20.506Z,994.33
2018-08-20T08:12:20.504Z,994.37
2018-08-20T08:13:20.516Z,994.33
2018-08-20T08:14:20.514Z,994.33
2018-08-20T08:15:20.529Z,994.3
2018-08-20T08:16:20.552Z,994.34
2018-08-20T08:17:20.556Z,994.3
2018-08-20T08:18:20.569Z,994.32
2018-08-20T08:19:20.561Z,994.27
2018-08-20T08:20:20.577Z,994.24
2018-08-20T08:21:20.583Z,994.25
2018-08-20T08:22:20.600Z,994.27
2018-08-20T08:23:20.604Z,994.27
2018-08-20T08:24:20.612Z,994.28
2018-08-20T08:25:20.618Z,994.3
2018-08-20T08:26:20.637Z,994.3
2018-08-20T08:27:20.627Z,994.32
2018-08-20T08:28:20.638Z,994.3
2018-08-20T08:29:20.646Z,994.31
2018-08-20T08:30:20.657Z,994.3
2018-08-20T08:31:20.658Z,994.31
2018-08-20T08:32:20.670Z,994.34
2018-08-20T08:33:20.676Z,994.3
2018-08-20T08:34:21.735Z,994.3
2018-08-20T08:35:20.708Z,994.3
2018-08-20T08:36:20.702Z,994.27
2018-08-20T08:37:20.714Z,994.28
2018-08-20T08:38:20.728Z,994.24
2018-08-20T08:39:20.729Z,994.28
2018-08-20T08:40:20.740Z,994.21
2018-08-20T08:41:20.744Z,994.17
2018-08-20T08:42:20.754Z,994.22
2018-08-20T08:43:20.768Z,994.22
2018-08-20T08:44:20.768Z,994.2
2018-08-20T08:45:20.780Z,994.18
2018-08-20T08:46:20.785Z,994.18
2018-08-20T08:47:20.793Z,994.15
2018-08-20T08:48:20.802Z,994.18
2018-08-20T08:49:20.812Z,994.16
2018-08-20T08:50:20.816Z,994.16
2018-08-20T08:51:20.826Z,994.17
2018-08-20T08:52:20.836Z,994.15
2018-08-20T08:53:20.843Z,994.16
2018-08-20T08:54:20.852Z,994.14
2018-08-20T08:55:20.859Z,994.17
2018-08-20T08:56:20.868Z,994.2
2018-08-20T08:57:20.874Z,994.19
2018-08-20T08:58:20.878Z,994.19
2018-08-20T08:59:20.885Z,994.12
2018-08-20T09:00:20.893Z,994.2
2018-08-20T09:01:20.899Z,994.14
2018-08-20T09:02:20.906Z,994.12
2018-08-20T09:03:20.911Z,994.1
2018-08-20T09:04:20.920Z,994.12
2018-08-20T09:05:20.930Z,994.16
2018-08-20T09:06:20.930Z,994.16
2018-08-20T09:07:20.937Z,994.17
2018-08-20T09:08:20.942Z,994.16
2018-08-20T09:09:20.947Z,994.16
2018-08-20T09:10:20.952Z,994.15
2018-08-20T09:11:20.957Z,994.2
2018-08-20T09:12:20.970Z,994.18
2018-08-20T09:13:20.973Z,994.18
2018-08-20T09:14:20.976Z,994.18
2018-08-20T09:15:20.981Z,994.18
2018-08-20T09:16:20.989Z,994.23
2018-08-20T09:17:20.995Z,994.23
2018-08-20T09:18:21.001Z,994.21
2018-08-20T09:19:21.009Z,994.19
2018-08-20T09:20:21.009Z,994.17
2018-08-20T09:21:21.016Z,994.18
2018-08-20T09:22:21.027Z,994.28
2018-08-20T09:23:21.026Z,994.17
2018-08-20T09:24:21.037Z,994.19
2018-08-20T09:25:21.038Z,994.22
2018-08-20T09:26:21.044Z,994.27
2018-08-20T09:27:21.047Z,994.28
2018-08-20T09:28:21.055Z,994.32
2018-08-20T09:29:21.057Z,994.31
2018-08-20T09:30:21.063Z,994.33
2018-08-20T09:31:21.069Z,994.32
2018-08-20T09:32:21.113Z,994.25
2018-08-20T09:33:21.080Z,994.23
2018-08-20T09:34:21.088Z,994.27
2018-08-20T09:35:21.089Z,994.25
2018-08-20T09:36:21.106Z,994.24
2018-08-20T09:37:21.099Z,994.22
2018-08-20T09:38:21.147Z,994.22
2018-08-20T09:39:21.113Z,994.21
2018-08-20T09:40:21.115Z,994.23
2018-08-20T09:41:21.120Z,994.22
2018-08-20T09:42:21.127Z,994.16
2018-08-20T09:43:21.134Z,994.22
2018-08-20T09:44:21.137Z,994.21
2018-08-20T09:45:21.139Z,994.2
2018-08-20T09:46:21.143Z,994.22
2018-08-20T09:47:21.151Z,994.18
2018-08-20T09:48:21.158Z,994.13
2018-08-20T09:49:21.160Z,994.17
2018-08-20T09:50:21.166Z,994.19
2018-08-20T09:51:21.171Z,994.2
2018-08-20T09:52:21.174Z,994.22
2018-08-20T09:53:21.250Z,994.19
2018-08-20T09:54:21.189Z,994.16
2018-08-20T09:55:21.290Z,994.15
2018-08-20T09:56:21.198Z,994.15
2018-08-20T09:57:21.204Z,994.11
2018-08-20T09:58:21.208Z,994.12
2018-08-20T09:59:21.215Z,994.17
2018-08-20T10:00:21.221Z,994.11
2018-08-20T10:01:21.226Z,994.12
2018-08-20T10:02:21.228Z,994.15
2018-08-20T10:03:21.233Z,994.16
2018-08-20T10:04:21.243Z,994.16
2018-08-20T10:05:21.493Z,994.16
2018-08-20T10:06:21.254Z,994.12
2018-08-20T10:07:21.314Z,994.15
2018-08-20T10:08:21.264Z,994.16
2018-08-20T10:09:21.264Z,994.17
2018-08-20T10:10:21.269Z,994.18
2018-08-20T10:11:21.277Z,994.13
2018-08-20T10:12:21.284Z,994.17
2018-08-20T10:13:21.288Z,994.14
2018-08-20T10:14:21.297Z,994.16
2018-08-20T10:15:21.295Z,994.12
2018-08-20T10:16:21.304Z,994.08
2018-08-20T10:17:21.305Z,994.09
2018-08-20T10:18:21.350Z,994.09
2018-08-20T10:19:21.332Z,994.09
2018-08-20T10:20:21.324Z,994.1
2018-08-20T10:21:21.328Z,994.06
2018-08-20T10:22:21.333Z,994.1
2018-08-20T10:23:21.339Z,994.06
2018-08-20T10:24:21.341Z,994.02
2018-08-20T10:25:21.346Z,993.98
2018-08-20T10:26:21.358Z,994.01
2018-08-20T10:27:21.357Z,993.98
2018-08-20T10:28:21.362Z,993.97
2018-08-20T10:29:21.369Z,993.88
2018-08-20T10:30:21.373Z,993.9
2018-08-20T10:31:21.377Z,993.93
2018-08-20T10:32:21.379Z,993.95
2018-08-20T10:33:21.385Z,993.92
2018-08-20T10:34:21.393Z,993.96
2018-08-20T10:35:21.396Z,993.96
2018-08-20T10:36:21.404Z,993.97
2018-08-20T10:37:21.404Z,993.94
2018-08-20T10:38:21.423Z,993.91
2018-08-20T10:39:21.418Z,993.96
2018-08-20T10:40:21.519Z,993.92
2018-08-20T10:41:21.433Z,993.9
2018-08-20T10:42:21.441Z,993.85
2018-08-20T10:43:21.435Z,993.86
2018-08-20T10:44:21.440Z,993.86
2018-08-20T10:45:21.448Z,993.82
2018-08-20T10:46:21.451Z,993.86
2018-08-20T10:47:21.462Z,993.86
2018-08-20T10:48:21.471Z,993.89
2018-08-20T10:49:21.485Z,993.82
2018-08-20T10:50:22.298Z,993.8
2018-08-20T10:51:21.477Z,993.86
2018-08-20T10:52:21.490Z,993.85
2018-08-20T10:53:21.510Z,993.87
2018-08-20T10:54:21.503Z,993.82
2018-08-20T10:55:21.499Z,993.77
2018-08-20T10:56:21.606Z,993.77
2018-08-20T10:57:21.509Z,993.75
2018-08-20T10:58:21.518Z,993.77
2018-08-20T10:59:21.518Z,993.78
2018-08-20T11:00:21.525Z,993.81
2018-08-20T11:01:21.537Z,993.81
2018-08-20T11:02:21.543Z,993.81
2018-08-20T11:03:21.540Z,993.84
2018-08-20T11:04:21.544Z,993.83
2018-08-20T11:05:21.555Z,993.88
2018-08-20T11:06:21.556Z,993.8
2018-08-20T11:07:21.567Z,993.79
2018-08-20T11:08:21.582Z,993.81
2018-08-20T11:09:21.570Z,993.84
2018-08-20T11:10:21.576Z,993.86
2018-08-20T11:11:21.584Z,993.82
2018-08-20T11:12:21.584Z,993.8
2018-08-20T11:13:21.590Z,993.75
2018-08-20T11:14:21.597Z,993.75
2018-08-20T11:15:21.614Z,993.7
2018-08-20T11:16:21.623Z,993.77
2018-08-20T11:17:21.619Z,993.79
2018-08-20T11:18:21.680Z,993.75
2018-08-20T11:19:21.622Z,993.7
2018-08-20T11:20:21.660Z,993.67
2018-08-20T11:21:21.668Z,993.68
2018-08-20T11:22:21.639Z,993.72
2018-08-20T11:23:21.675Z,993.63
2018-08-20T11:24:21.650Z,993.7
2018-08-20T11:25:21.657Z,993.63
2018-08-20T11:26:21.666Z,993.65
2018-08-20T11:27:21.664Z,993.66
2018-08-20T11:28:21.674Z,993.64
2018-08-20T11:29:21.678Z,993.67
2018-08-20T11:30:21.780Z,993.69
2018-08-20T11:31:21.684Z,993.66
2018-08-20T11:32:21.737Z,993.67
2018-08-20T11:33:21.699Z,993.66
2018-08-20T11:34:21.703Z,993.66
2018-08-20T11:35:21.708Z,993.6
2018-08-20T11:36:21.711Z,993.6
2018-08-20T11:37:21.717Z,993.54
2018-08-20T11:38:21.722Z,993.61
2018-08-20T11:39:21.742Z,993.57
2018-08-20T11:40:21.735Z,993.58
2018-08-20T11:41:21.741Z,993.5
2018-08-20T11:42:21.745Z,993.53
2018-08-20T11:43:21.882Z,993.51
2018-08-20T11:44:21.753Z,993.43
2018-08-20T11:45:21.757Z,993.49
2018-08-20T11:46:21.763Z,993.45
2018-08-20T11:47:21.771Z,993.44
2018-08-20T11:48:21.775Z,993.45
2018-08-20T11:49:21.778Z,993.43
2018-08-20T11:50:21.783Z,993.41
2018-08-20T11:51:21.787Z,993.44
2018-08-20T11:52:21.792Z,993.41
2018-08-20T11:53:21.811Z,993.36
2018-08-20T11:54:21.821Z,993.35
2018-08-20T11:55:21.810Z,993.3
2018-08-20T11:56:21.816Z,993.29
2018-08-20T11:57:21.830Z,993.28
2018-08-20T11:58:21.825Z,993.25
2018-08-20T11:59:21.833Z,993.24
2018-08-20T12:00:21.925Z,993.28
2018-08-20T12:01:21.840Z,993.21
2018-08-20T12:02:21.848Z,993.27
2018-08-20T12:03:21.851Z,993.28
2018-08-20T12:04:21.859Z,993.25
2018-08-20T12:05:21.869Z,993.28
2018-08-20T12:06:21.872Z,993.24
2018-08-20T12:07:21.962Z,993.25
2018-08-20T12:08:21.881Z,993.24
2018-08-20T12:09:21.885Z,993.23
2018-08-20T12:10:21.897Z,993.18
2018-08-20T12:11:21.893Z,993.19
2018-08-20T12:12:21.904Z,993.13
2018-08-20T12:13:21.907Z,993.14
2018-08-20T12:14:21.909Z,993.09
2018-08-20T12:15:21.979Z,993.11
2018-08-20T12:16:21.921Z,993.09
2018-08-20T12:17:22.027Z,993.07
2018-08-20T12:18:21.937Z,993.05
2018-08-20T12:19:21.969Z,993.07
2018-08-20T12:20:21.969Z,993.04
2018-08-20T12:21:21.948Z,993.07
2018-08-20T12:22:21.992Z,993.09
2018-08-20T12:23:21.958Z,993.14
2018-08-20T12:24:21.964Z,993.08
2018-08-20T12:25:21.973Z,993.08
2018-08-20T12:26:21.974Z,993.09
2018-08-20T12:27:21.977Z,993.09
2018-08-20T12:28:22.083Z,993.04
2018-08-20T12:29:21.988Z,993.03
2018-08-20T12:30:21.996Z,993
2018-08-20T12:31:22.000Z,993